createdAt,value
2023-04-19T00:01:16.571Z,99.90
2023-04-19T00:03:43.434Z,99.90
2023-04-19T00:06:15.000Z,99.90
2023-04-19T00:08:44.523Z,99.90
2023-04-19T00:11:11.277Z,99.90
2023-04-19T00:13:38.395Z,99.90
2023-04-19T00:16:06.025Z,99.90
2023-04-19T00:18:32.683Z,99.90
2023-04-19T00:20:59.961Z,99.90
2023-04-19T00:23:26.694Z,99.90
2023-04-19T00:25:53.352Z,99.90
2023-04-19T00:28:20.000Z,99.90
2023-04-19T00:30:46.694Z,99.90
2023-04-19T00:33:13.455Z,99.90
2023-04-19T00:35:44.655Z,99.90
2023-04-19T00:38:11.409Z,99.90
2023-04-19T00:40:43.186Z,99.90
2023-04-19T00:43:09.993Z,99.90
2023-04-19T00:45:36.901Z,99.90
2023-04-19T00:48:06.628Z,99.90
2023-04-19T00:50:36.078Z,99.90
2023-04-19T00:53:03.108Z,99.90
2023-04-19T00:55:32.803Z,99.90
2023-04-19T00:58:00.150Z,99.90
2023-04-19T01:00:26.898Z,99.90
2023-04-19T01:02:55.455Z,99.90
2023-04-19T01:05:22.228Z,99.90
2023-04-19T01:07:48.903Z,99.90
2023-04-19T01:10:16.439Z,99.90
2023-04-19T01:12:43.100Z,99.90
2023-04-19T01:15:10.227Z,99.90
2023-04-19T01:17:37.648Z,99.90
2023-04-19T01:20:08.756Z,99.90
2023-04-19T01:22:37.599Z,99.90
2023-04-19T01:25:07.500Z,99.90
2023-04-19T01:27:34.266Z,99.90
2023-04-19T01:30:00.912Z,99.90
2023-04-19T01:32:27.695Z,99.90
2023-04-19T01:37:21.517Z,99.90
2023-04-19T01:39:48.293Z,99.90
2023-04-19T01:42:15.107Z,99.90
2023-04-19T01:44:41.928Z,99.90
2023-04-19T01:47:08.715Z,99.90
2023-04-19T01:49:35.717Z,99.90
2023-04-19T01:52:02.488Z,99.90
2023-04-19T01:54:29.261Z,99.90
2023-04-19T01:59:28.372Z,99.90
2023-04-19T07:34:51.820Z,99.90
2023-04-19T07:37:21.275Z,99.90
2023-04-19T07:39:50.464Z,99.90
2023-04-19T07:42:17.241Z,99.90
2023-04-19T07:44:44.207Z,99.90
2023-04-19T07:47:10.880Z,99.90
2023-04-19T07:49:38.362Z,99.90
2023-04-19T07:52:07.760Z,99.90
2023-04-19T07:54:39.186Z,99.90
2023-04-19T07:57:06.106Z,99.90
2023-04-19T07:59:35.041Z,99.90
2023-04-19T08:02:01.968Z,99.90
2023-04-19T08:06:59.367Z,99.90
2023-04-19T08:09:26.305Z,99.90
2023-04-19T08:11:53.593Z,99.90
2023-04-19T08:14:34.571Z,99.90
2023-04-19T08:19:34.399Z,99.90
2023-04-19T08:22:03.732Z,99.90
2023-04-19T08:24:32.705Z,99.90
2023-04-19T08:27:01.998Z,99.90
2023-04-19T08:29:28.740Z,99.90
2023-04-19T08:31:57.721Z,99.90
2023-04-19T08:34:26.884Z,99.90
2023-04-19T08:37:03.340Z,99.90
2023-04-19T08:39:34.904Z,99.90
2023-04-19T08:47:56.062Z,99.90
2023-04-19T08:50:33.553Z,99.90
2023-04-19T08:53:16.476Z,99.90
2023-04-19T08:58:32.821Z,99.90
2023-04-19T09:01:12.815Z,99.90
2023-04-19T09:03:59.425Z,99.90
2023-04-19T09:06:37.440Z,99.90
2023-04-19T09:11:50.762Z,99.90
2023-04-19T09:14:19.577Z,99.90
2023-04-19T09:16:47.024Z,99.90
2023-04-19T09:19:23.122Z,99.90
2023-04-19T09:21:51.889Z,99.90
2023-04-19T09:24:18.857Z,99.90
2023-04-19T09:26:57.968Z,99.90
2023-04-19T09:29:25.368Z,99.90
2023-04-19T09:31:59.394Z,99.90
2023-04-19T09:34:28.183Z,99.90
2023-04-19T09:37:08.388Z,99.90
2023-04-19T09:39:38.522Z,99.90
2023-04-19T09:42:05.208Z,99.90
2023-04-19T09:47:24.132Z,99.90
2023-04-19T09:50:19.235Z,99.90
2023-04-19T09:52:52.307Z,99.90
2023-04-19T09:55:27.917Z,99.90
2023-04-19T09:57:55.424Z,99.90
2023-04-19T10:00:23.127Z,99.90
2023-04-19T10:02:57.954Z,99.90
2023-04-19T10:05:25.724Z,99.90
2023-04-19T10:07:56.683Z,99.90
2023-04-19T10:15:47.230Z,99.90
2023-04-19T10:18:18.477Z,99.40
2023-04-19T10:20:54.333Z,99.90
2023-04-19T10:23:24.132Z,99.50
2023-04-19T10:25:55.538Z,99.70
2023-04-19T10:28:24.873Z,99.90
2023-04-19T10:30:57.182Z,99.90
2023-04-19T10:33:28.408Z,99.90
2023-04-19T10:35:59.643Z,99.90
2023-04-19T10:38:49.398Z,99.90
2023-04-19T10:43:54.922Z,99.90
2023-04-19T10:46:21.638Z,99.90
2023-04-19T10:48:57.948Z,99.90
2023-04-19T10:51:28.713Z,99.90
2023-04-19T10:54:03.658Z,99.90
2023-04-19T10:56:35.363Z,99.90
2023-04-19T10:59:02.331Z,98.90
2023-04-19T11:01:38.107Z,99.00
2023-04-19T11:04:06.063Z,99.20
2023-04-19T11:06:33.999Z,98.90
2023-04-19T11:09:02.727Z,98.30
2023-04-19T11:11:32.992Z,98.30
2023-04-19T11:14:02.438Z,98.40
2023-04-19T11:19:04.953Z,96.90
2023-04-19T11:21:33.908Z,97.70
2023-04-19T11:24:10.947Z,97.30
2023-04-19T11:26:37.691Z,95.70
2023-04-19T11:29:06.205Z,95.30
2023-04-19T11:31:35.605Z,94.50
2023-04-19T11:34:06.284Z,95.00
2023-04-19T11:36:36.643Z,94.80
2023-04-19T11:39:07.480Z,94.50
2023-04-19T11:41:39.491Z,94.20
2023-04-19T11:44:22.871Z,92.30
2023-04-19T11:47:07.489Z,93.00
2023-04-19T11:49:34.467Z,93.40
2023-04-19T11:52:06.484Z,93.30
2023-04-19T11:54:34.005Z,93.20
2023-04-19T11:57:06.064Z,93.80
2023-04-19T11:59:34.546Z,93.30
2023-04-19T12:02:09.301Z,93.00
2023-04-19T12:04:36.806Z,92.90
2023-04-19T12:07:07.033Z,92.80
2023-04-19T12:09:35.846Z,92.50
2023-04-19T12:12:04.981Z,92.70
2023-04-19T12:14:31.901Z,92.90
2023-04-19T12:17:07.994Z,92.90
2023-04-19T12:19:37.196Z,93.50
2023-04-19T12:22:17.311Z,93.90
2023-04-19T12:24:44.123Z,93.90
2023-04-19T12:27:13.204Z,94.00
2023-04-19T12:29:42.237Z,93.80
2023-04-19T12:32:10.861Z,93.70
2023-04-19T12:34:37.619Z,93.40
2023-04-19T12:37:06.842Z,93.20
2023-04-19T12:39:35.885Z,93.20
2023-04-19T12:42:02.867Z,93.20
2023-04-19T12:44:29.517Z,92.70
2023-04-19T12:46:57.741Z,92.20
2023-04-19T12:49:24.621Z,92.60
2023-04-19T12:51:55.229Z,92.40
2023-04-19T12:54:23.945Z,92.10
2023-04-19T12:56:52.801Z,91.90
2023-04-19T12:59:19.647Z,91.70
2023-04-19T13:01:50.934Z,91.60
2023-04-19T13:04:20.565Z,91.30
2023-04-19T13:06:49.970Z,91.40
2023-04-19T13:09:16.644Z,91.20
2023-04-19T13:11:43.397Z,90.10
2023-04-19T13:14:10.280Z,90.10
2023-04-19T13:16:37.014Z,90.00
2023-04-19T13:19:05.967Z,90.20
2023-04-19T13:21:34.939Z,90.70
2023-04-19T13:24:01.622Z,89.10
2023-04-19T13:26:28.852Z,86.60
2023-04-19T13:28:56.267Z,86.40
2023-04-19T14:00:54.278Z,71.70
2023-04-19T14:03:23.276Z,69.90
2023-04-19T14:05:50.193Z,71.40
2023-04-19T14:08:16.853Z,71.20
2023-04-19T14:10:43.676Z,72.60
2023-04-19T14:13:10.524Z,69.20
2023-04-19T14:15:37.261Z,80.00
2023-04-19T14:18:06.208Z,78.60
2023-04-19T14:20:33.099Z,77.30
2023-04-19T14:32:49.806Z,70.70
2023-04-19T14:35:16.563Z,61.40
2023-04-19T14:37:43.442Z,60.30
2023-04-19T14:42:42.811Z,57.20
2023-04-19T14:45:10.199Z,55.60
2023-04-19T14:47:36.952Z,54.70
2023-04-19T14:52:31.362Z,52.50
2023-04-19T14:57:29.826Z,55.00
2023-04-19T15:00:00.967Z,56.60
2023-04-19T15:02:28.159Z,55.80
2023-04-19T15:04:55.292Z,80.70
2023-04-19T15:07:22.217Z,82.40
2023-04-19T15:09:49.081Z,85.10
2023-04-19T15:12:15.872Z,86.90
2023-04-19T15:14:42.663Z,86.30
2023-04-19T15:17:09.331Z,84.80
2023-04-19T15:19:38.958Z,85.00
2023-04-19T15:22:06.240Z,85.40
2023-04-19T15:24:35.084Z,86.00
2023-04-19T15:27:03.999Z,84.10
2023-04-19T15:29:32.889Z,54.10
2023-04-19T15:32:02.861Z,54.60
2023-04-19T15:34:31.703Z,52.70
2023-04-19T15:36:58.462Z,50.90
2023-04-19T15:39:25.684Z,53.80
2023-04-19T15:41:52.385Z,53.90
2023-04-19T15:44:21.405Z,53.90
2023-04-19T15:46:48.139Z,53.80
2023-04-19T15:49:15.001Z,53.80
2023-04-19T15:51:41.914Z,54.90
2023-04-19T15:54:12.119Z,55.00
2023-04-19T15:56:38.777Z,56.00
2023-04-19T15:59:05.591Z,56.20
2023-04-19T16:01:32.349Z,57.40
2023-04-19T16:03:59.259Z,91.10
2023-04-19T16:08:54.068Z,56.50
2023-04-19T16:11:23.295Z,58.80
2023-04-19T16:13:50.012Z,59.00
2023-04-19T16:16:16.723Z,60.00
2023-04-19T16:18:46.984Z,58.90
2023-04-19T16:21:15.944Z,58.60
2023-04-19T16:23:42.601Z,60.20
2023-04-19T16:43:22.484Z,95.60
2023-04-19T16:45:51.437Z,95.50
2023-04-19T17:47:27.535Z,74.80
2023-04-19T17:50:08.350Z,71.30
2023-04-19T17:52:35.600Z,85.00
2023-04-19T17:55:04.507Z,83.20
2023-04-19T17:57:33.706Z,93.90
2023-04-19T18:00:06.874Z,89.00
2023-04-19T18:02:34.835Z,88.50
2023-04-19T18:05:01.779Z,84.50
2023-04-19T18:07:28.832Z,80.20
2023-04-19T18:09:55.600Z,82.00
2023-04-19T18:12:23.113Z,81.20
2023-04-19T18:14:57.035Z,80.70
2023-04-19T18:17:23.884Z,80.60
2023-04-19T18:19:51.106Z,87.90
2023-04-19T18:22:17.785Z,92.00
2023-04-19T18:24:46.831Z,93.00
2023-04-19T18:34:35.721Z,87.30
2023-04-19T18:39:31.706Z,94.20
2023-04-19T18:42:01.832Z,96.70
2023-04-19T18:47:15.835Z,97.70
2023-04-19T18:49:46.115Z,97.20
2023-04-19T18:52:24.730Z,96.80
2023-04-19T18:54:56.162Z,97.00
2023-04-19T18:57:26.583Z,97.00
2023-04-19T18:59:56.071Z,96.90
2023-04-19T19:02:27.074Z,97.00
2023-04-19T19:04:58.479Z,97.30
2023-04-19T19:10:16.077Z,97.70
2023-04-19T20:18:52.700Z,77.60
2023-04-19T20:23:49.532Z,80.40
2023-04-19T20:31:12.952Z,85.40
2023-04-19T20:33:39.655Z,90.30
2023-04-19T20:36:06.711Z,96.00
2023-04-19T20:38:34.498Z,96.20
2023-04-19T20:41:03.475Z,94.20
2023-04-19T20:43:30.374Z,99.50
2023-04-19T20:45:59.638Z,97.30
2023-04-19T20:48:26.358Z,99.90
2023-04-19T20:53:25.092Z,99.20
2023-04-19T20:55:51.992Z,99.90
2023-04-19T20:58:18.680Z,99.90
2023-04-19T22:02:29.612Z,94.50
2023-04-19T22:04:56.605Z,96.70
2023-04-19T22:12:18.832Z,95.00
2023-04-19T22:14:45.603Z,98.80
2023-04-19T22:17:14.569Z,97.30
2023-04-19T22:19:41.270Z,99.90
2023-04-19T22:22:12.864Z,99.90
2023-04-19T22:24:53.399Z,88.50
2023-04-19T22:27:27.391Z,95.40
2023-04-19T22:29:54.144Z,90.00
2023-04-19T22:32:20.930Z,89.10
2023-04-19T22:34:47.632Z,89.70
2023-04-19T22:37:14.372Z,91.30
2023-04-19T22:39:41.037Z,91.50
2023-04-19T22:42:07.812Z,91.70
2023-04-19T22:44:34.590Z,91.90
2023-04-19T22:47:01.327Z,92.70
2023-04-19T22:49:29.600Z,92.50
2023-04-19T22:51:59.612Z,92.90
2023-04-19T22:54:26.556Z,93.00
2023-04-19T22:56:53.229Z,93.60
2023-04-19T22:59:22.486Z,94.00
2023-04-19T23:01:51.832Z,94.10
2023-04-19T23:06:48.613Z,94.70
2023-04-19T23:09:15.924Z,95.10
2023-04-19T23:11:47.118Z,96.20
2023-04-19T23:14:13.942Z,95.70
2023-04-19T23:16:42.813Z,96.30
2023-04-19T23:19:09.525Z,96.10
2023-04-19T23:21:36.343Z,96.10
2023-04-19T23:24:03.188Z,95.50
2023-04-19T23:26:30.177Z,95.20
2023-04-19T23:28:56.901Z,94.80
2023-04-19T23:31:23.726Z,94.90
2023-04-19T23:33:50.555Z,95.00
2023-04-19T23:36:19.501Z,95.80
2023-04-19T23:38:46.187Z,95.60
2023-04-19T23:41:15.673Z,96.30
2023-04-19T23:43:42.329Z,96.10
2023-04-19T23:46:11.499Z,95.90
2023-04-19T23:48:38.366Z,96.30
